sensor_id;sensor_type;location;lat;lon;timestamp;pressure;altitude;pressure_sealevel;temperature;humidity
28927;BME280;16038;47.692;9.400;2023-02-13T00:02:02;98411.53;;;1.21;100.00
28927;BME280;16038;47.692;9.400;2023-02-13T00:04:27;98406.97;;;1.26;100.00
28927;BME280;16038;47.692;9.400;2023-02-13T00:06:52;98413.66;;;1.13;100.00
28927;BME280;16038;47.692;9.400;2023-02-13T00:09:18;98415.78;;;1.06;100.00
28927;BME280;16038;47.692;9.400;2023-02-13T00:11:43;98399.88;;;1.05;100.00
28927;BME280;16038;47.692;9.400;2023-02-13T00:14:08;98403.56;;;0.93;100.00
28927;BME280;16038;47.692;9.400;2023-02-13T00:16:34;98409.72;;;0.84;100.00
28927;BME280;16038;47.692;9.400;2023-02-13T00:19:00;98403.75;;;0.76;100.00
28927;BME280;16038;47.692;9.400;2023-02-13T00:21:25;98407.00;;;0.79;100.00
28927;BME280;16038;47.692;9.400;2023-02-13T00:23:50;98404.56;;;0.77;100.00
28927;BME280;16038;47.692;9.400;2023-02-13T00:26:15;98403.16;;;0.69;100.00
28927;BME280;16038;47.692;9.400;2023-02-13T00:28:42;98409.03;;;0.56;100.00
28927;BME280;16038;47.692;9.400;2023-02-13T00:31:08;98407.00;;;0.41;100.00
28927;BME280;16038;47.692;9.400;2023-02-13T00:33:34;98410.41;;;0.26;100.00
28927;BME280;16038;47.692;9.400;2023-02-13T00:38:31;98408.16;;;0.13;100.00
28927;BME280;16038;47.692;9.400;2023-02-13T00:40:56;98411.91;;;0.12;100.00
28927;BME280;16038;47.692;9.400;2023-02-13T00:43:21;98413.00;;;0.16;100.00
28927;BME280;16038;47.692;9.400;2023-02-13T00:45:47;98415.00;;;0.26;100.00
28927;BME280;16038;47.692;9.400;2023-02-13T00:48:12;98422.28;;;0.30;100.00
28927;BME280;16038;47.692;9.400;2023-02-13T00:50:37;98414.69;;;0.22;100.00
28927;BME280;16038;47.692;9.400;2023-02-13T00:53:03;98422.28;;;0.30;100.00
28927;BME280;16038;47.692;9.400;2023-02-13T00:55:28;98421.44;;;0.25;100.00
28927;BME280;16038;47.692;9.400;2023-02-13T00:57:53;98415.75;;;0.21;100.00
28927;BME280;16038;47.692;9.400;2023-02-13T01:00:18;98417.03;;;0.13;100.00
28927;BME280;16038;47.692;9.400;2023-02-13T01:02:44;98417.50;;;0.05;100.00
28927;BME280;16038;47.692;9.400;2023-02-13T01:05:09;98416.69;;;0.05;100.00
28927;BME280;16038;47.692;9.400;2023-02-13T01:07:34;98426.00;;;-0.08;100.00
28927;BME280;16038;47.692;9.400;2023-02-13T01:09:59;98422.28;;;-0.02;100.00
28927;BME280;16038;47.692;9.400;2023-02-13T01:12:25;98428.72;;;-0.08;100.00
28927;BME280;16038;47.692;9.400;2023-02-13T01:14:50;98435.44;;;-0.06;100.00
28927;BME280;16038;47.692;9.400;2023-02-13T01:17:16;98428.84;;;0.07;100.00
28927;BME280;16038;47.692;9.400;2023-02-13T01:19:41;98439.09;;;0.10;100.00
28927;BME280;16038;47.692;9.400;2023-02-13T01:22:07;98434.56;;;0.16;100.00
28927;BME280;16038;47.692;9.400;2023-02-13T01:24:32;98427.56;;;0.15;100.00
28927;BME280;16038;47.692;9.400;2023-02-13T01:26:58;98424.13;;;0.25;100.00
28927;BME280;16038;47.692;9.400;2023-02-13T01:29:23;98437.06;;;0.23;100.00
28927;BME280;16038;47.692;9.400;2023-02-13T01:31:48;98438.09;;;0.16;100.00
28927;BME280;16038;47.692;9.400;2023-02-13T01:34:14;98443.25;;;0.23;100.00
28927;BME280;16038;47.692;9.400;2023-02-13T01:36:39;98439.81;;;0.28;100.00
28927;BME280;16038;47.692;9.400;2023-02-13T01:39:04;98439.91;;;0.38;100.00
28927;BME280;16038;47.692;9.400;2023-02-13T01:41:30;98438.84;;;0.44;100.00
28927;BME280;16038;47.692;9.400;2023-02-13T01:43:56;98431.50;;;0.34;100.00
28927;BME280;16038;47.692;9.400;2023-02-13T01:46:26;98425.88;;;0.41;100.00
28927;BME280;16038;47.692;9.400;2023-02-13T01:48:53;98427.38;;;0.59;100.00
28927;BME280;16038;47.692;9.400;2023-02-13T01:51:22;98434.75;;;0.74;100.00
28927;BME280;16038;47.692;9.400;2023-02-13T01:53:51;98441.31;;;0.88;100.00
28927;BME280;16038;47.692;9.400;2023-02-13T01:56:28;98436.22;;;0.97;100.00
28927;BME280;16038;47.692;9.400;2023-02-13T01:58:58;98435.97;;;0.99;100.00
28927;BME280;16038;47.692;9.400;2023-02-13T02:01:25;98449.50;;;1.04;100.00
28927;BME280;16038;47.692;9.400;2023-02-13T02:03:52;98444.59;;;0.95;100.00
28927;BME280;16038;47.692;9.400;2023-02-13T02:06:24;98448.97;;;1.07;100.00
28927;BME280;16038;47.692;9.400;2023-02-13T02:08:50;98446.03;;;1.08;100.00
28927;BME280;16038;47.692;9.400;2023-02-13T02:11:21;98448.47;;;1.15;100.00
28927;BME280;16038;47.692;9.400;2023-02-13T02:13:46;98449.56;;;1.14;100.00
28927;BME280;16038;47.692;9.400;2023-02-13T02:16:12;98454.19;;;1.24;100.00
28927;BME280;16038;47.692;9.400;2023-02-13T02:18:37;98457.69;;;1.19;100.00
28927;BME280;16038;47.692;9.400;2023-02-13T02:26:29;98464.34;;;1.01;100.00
28927;BME280;16038;47.692;9.400;2023-02-13T02:44:08;98464.09;;;1.08;100.00
28927;BME280;16038;47.692;9.400;2023-02-13T02:46:37;98470.00;;;1.00;100.00
28927;BME280;16038;47.692;9.400;2023-02-13T02:49:24;98463.75;;;0.94;100.00
28927;BME280;16038;47.692;9.400;2023-02-13T02:52:17;98463.75;;;0.94;100.00
28927;BME280;16038;47.692;9.400;2023-02-13T02:54:47;98469.75;;;1.06;100.00
28927;BME280;16038;47.692;9.400;2023-02-13T02:57:32;98468.19;;;1.16;100.00
28927;BME280;16038;47.692;9.400;2023-02-13T03:00:16;98465.81;;;1.29;100.00
28927;BME280;16038;47.692;9.400;2023-02-13T03:03:02;98465.91;;;1.45;100.00
28927;BME280;16038;47.692;9.400;2023-02-13T03:05:47;98466.72;;;1.50;100.00
28927;BME280;16038;47.692;9.400;2023-02-13T03:08:32;98471.59;;;1.53;100.00
28927;BME280;16038;47.692;9.400;2023-02-13T03:11:16;98482.69;;;1.57;100.00
28927;BME280;16038;47.692;9.400;2023-02-13T03:13:59;98486.97;;;1.53;100.00
28927;BME280;16038;47.692;9.400;2023-02-13T03:16:27;98479.16;;;1.57;100.00
28927;BME280;16038;47.692;9.400;2023-02-13T03:19:12;98481.06;;;1.61;100.00
28927;BME280;16038;47.692;9.400;2023-02-13T03:22:00;98490.13;;;1.34;100.00
28927;BME280;16038;47.692;9.400;2023-02-13T03:35:33;98491.59;;;1.05;100.00
28927;BME280;16038;47.692;9.400;2023-02-13T03:38:24;98495.94;;;1.11;100.00
28927;BME280;16038;47.692;9.400;2023-02-13T03:41:01;98494.59;;;1.08;100.00
28927;BME280;16038;47.692;9.400;2023-02-13T03:46:14;98496.13;;;0.94;100.00
28927;BME280;16038;47.692;9.400;2023-02-13T03:48:41;98491.78;;;0.93;100.00
28927;BME280;16038;47.692;9.400;2023-02-13T03:53:59;98497.69;;;0.90;100.00
28927;BME280;16038;47.692;9.400;2023-02-13T03:56:26;98503.63;;;0.87;100.00
28927;BME280;16038;47.692;9.400;2023-02-13T03:59:32;98502.28;;;0.89;100.00
28927;BME280;16038;47.692;9.400;2023-02-13T04:02:00;98502.84;;;0.91;100.00
28927;BME280;16038;47.692;9.400;2023-02-13T04:04:30;98487.94;;;0.84;100.00
28927;BME280;16038;47.692;9.400;2023-02-13T04:07:00;98497.69;;;0.85;100.00
28927;BME280;16038;47.692;9.400;2023-02-13T04:09:28;98504.94;;;0.84;100.00
28927;BME280;16038;47.692;9.400;2023-02-13T04:12:01;98500.59;;;0.78;100.00
28927;BME280;16038;47.692;9.400;2023-02-13T04:17:08;98507.53;;;0.69;100.00
28927;BME280;16038;47.692;9.400;2023-02-13T04:19:36;98500.75;;;0.66;100.00
28927;BME280;16038;47.692;9.400;2023-02-13T04:22:02;98507.25;;;0.65;100.00
28927;BME280;16038;47.692;9.400;2023-02-13T04:24:27;98508.06;;;0.66;100.00
28927;BME280;16038;47.692;9.400;2023-02-13T04:26:53;98508.34;;;0.69;100.00
28927;BME280;16038;47.692;9.400;2023-02-13T04:29:20;98505.91;;;0.68;100.00
28927;BME280;16038;47.692;9.400;2023-02-13T04:31:45;98513.44;;;0.66;100.00
28927;BME280;16038;47.692;9.400;2023-02-13T04:34:15;98506.69;;;0.63;100.00
28927;BME280;16038;47.692;9.400;2023-02-13T04:36:40;98509.09;;;0.65;100.00
28927;BME280;16038;47.692;9.400;2023-02-13T04:39:05;98511.50;;;0.61;100.00
28927;BME280;16038;47.692;9.400;2023-02-13T04:41:30;98510.16;;;0.59;100.00
28927;BME280;16038;47.692;9.400;2023-02-13T04:43:56;98507.16;;;0.55;100.00
28927;BME280;16038;47.692;9.400;2023-02-13T04:46:21;98516.59;;;0.57;100.00
28927;BME280;16038;47.692;9.400;2023-02-13T04:48:46;98518.75;;;0.55;100.00
28927;BME280;16038;47.692;9.400;2023-02-13T04:51:12;98517.44;;;0.58;100.00
28927;BME280;16038;47.692;9.400;2023-02-13T04:53:37;98511.50;;;0.56;100.00
28927;BME280;16038;47.692;9.400;2023-02-13T04:56:03;98515.75;;;0.52;100.00
28927;BME280;16038;47.692;9.400;2023-02-13T04:58:28;98516.59;;;0.52;100.00
28927;BME280;16038;47.692;9.400;2023-02-13T05:00:54;98510.31;;;0.47;100.00
28927;BME280;16038;47.692;9.400;2023-02-13T05:03:19;98510.06;;;0.48;100.00
28927;BME280;16038;47.692;9.400;2023-02-13T05:05:44;98511.13;;;0.47;100.00
28927;BME280;16038;47.692;9.400;2023-02-13T05:08:10;98514.34;;;0.44;100.00
28927;BME280;16038;47.692;9.400;2023-02-13T05:10:35;98509.19;;;0.43;100.00
28927;BME280;16038;47.692;9.400;2023-02-13T05:13:01;98515.38;;;0.38;100.00
28927;BME280;16038;47.692;9.400;2023-02-13T05:15:26;98517.78;;;0.40;100.00
28927;BME280;16038;47.692;9.400;2023-02-13T05:17:51;98515.88;;;0.35;100.00
28927;BME280;16038;47.692;9.400;2023-02-13T05:20:17;98516.13;;;0.33;100.00
28927;BME280;16038;47.692;9.400;2023-02-13T05:22:43;98526.91;;;0.33;100.00
28927;BME280;16038;47.692;9.400;2023-02-13T05:25:27;98521.53;;;0.33;100.00
28927;BME280;16038;47.692;9.400;2023-02-13T05:27:52;98516.94;;;0.34;100.00
28927;BME280;16038;47.692;9.400;2023-02-13T05:30:18;98520.16;;;0.31;100.00
28927;BME280;16038;47.692;9.400;2023-02-13T05:32:43;98517.19;;;0.32;100.00
28927;BME280;16038;47.692;9.400;2023-02-13T05:35:08;98528.25;;;0.31;100.00
28927;BME280;16038;47.692;9.400;2023-02-13T05:37:34;98527.66;;;0.29;100.00
28927;BME280;16038;47.692;9.400;2023-02-13T05:39:59;98522.56;;;0.32;100.00
28927;BME280;16038;47.692;9.400;2023-02-13T05:42:24;98524.97;;;0.29;100.00
28927;BME280;16038;47.692;9.400;2023-02-13T05:44:50;98525.25;;;0.27;100.00
28927;BME280;16038;47.692;9.400;2023-02-13T05:47:15;98530.09;;;0.30;100.00
28927;BME280;16038;47.692;9.400;2023-02-13T05:49:40;98532.81;;;0.30;100.00
28927;BME280;16038;47.692;9.400;2023-02-13T05:52:05;98530.63;;;0.27;100.00
28927;BME280;16038;47.692;9.400;2023-02-13T05:54:31;98523.84;;;0.25;100.00
28927;BME280;16038;47.692;9.400;2023-02-13T05:56:56;98516.84;;;0.24;100.00
28927;BME280;16038;47.692;9.400;2023-02-13T05:59:21;98522.50;;;0.22;100.00
28927;BME280;16038;47.692;9.400;2023-02-13T06:01:46;98518.97;;;0.22;100.00
28927;BME280;16038;47.692;9.400;2023-02-13T06:04:12;98520.84;;;0.21;100.00
28927;BME280;16038;47.692;9.400;2023-02-13T06:06:37;98521.34;;;0.18;100.00
28927;BME280;16038;47.692;9.400;2023-02-13T06:09:03;98517.84;;;0.17;100.00
28927;BME280;16038;47.692;9.400;2023-02-13T06:11:28;98524.63;;;0.20;100.00
28927;BME280;16038;47.692;9.400;2023-02-13T06:13:53;98522.84;;;0.31;100.00
28927;BME280;16038;47.692;9.400;2023-02-13T06:16:19;98536.22;;;0.21;100.00
28927;BME280;16038;47.692;9.400;2023-02-13T06:18:44;98540.53;;;0.22;100.00
28927;BME280;16038;47.692;9.400;2023-02-13T06:21:09;98535.97;;;0.22;100.00
28927;BME280;16038;47.692;9.400;2023-02-13T06:23:34;98535.41;;;0.20;100.00
28927;BME280;16038;47.692;9.400;2023-02-13T06:26:00;98529.19;;;0.19;100.00
28927;BME280;16038;47.692;9.400;2023-02-13T06:28:26;98531.06;;;0.19;100.00
28927;BME280;16038;47.692;9.400;2023-02-13T06:30:51;98538.59;;;0.17;100.00
28927;BME280;16038;47.692;9.400;2023-02-13T06:33:16;98537.38;;;0.30;100.00
28927;BME280;16038;47.692;9.400;2023-02-13T06:35:42;98537.38;;;0.30;100.00
28927;BME280;16038;47.692;9.400;2023-02-13T06:38:07;98545.09;;;0.21;100.00
28927;BME280;16038;47.692;9.400;2023-02-13T06:40:32;98539.28;;;0.29;100.00
28927;BME280;16038;47.692;9.400;2023-02-13T06:42:57;98542.84;;;0.35;100.00
28927;BME280;16038;47.692;9.400;2023-02-13T06:45:23;98550.91;;;0.35;100.00
28927;BME280;16038;47.692;9.400;2023-02-13T06:47:48;98550.19;;;0.45;100.00
28927;BME280;16038;47.692;9.400;2023-02-13T06:50:14;98554.41;;;0.35;100.00
28927;BME280;16038;47.692;9.400;2023-02-13T06:52:47;98552.94;;;0.50;100.00
28927;BME280;16038;47.692;9.400;2023-02-13T06:55:13;98561.41;;;0.31;100.00
28927;BME280;16038;47.692;9.400;2023-02-13T06:57:38;98562.09;;;0.22;100.00
28927;BME280;16038;47.692;9.400;2023-02-13T07:00:03;98563.41;;;0.19;100.00
28927;BME280;16038;47.692;9.400;2023-02-13T07:02:32;98559.34;;;0.16;100.00
28927;BME280;16038;47.692;9.400;2023-02-13T07:04:58;98563.66;;;0.17;100.00
28927;BME280;16038;47.692;9.400;2023-02-13T07:07:23;98566.13;;;0.19;100.00
28927;BME280;16038;47.692;9.400;2023-02-13T07:09:48;98561.53;;;0.19;100.00
28927;BME280;16038;47.692;9.400;2023-02-13T07:12:14;98560.16;;;0.17;100.00
28927;BME280;16038;47.692;9.400;2023-02-13T07:14:39;98560.72;;;0.19;100.00
28927;BME280;16038;47.692;9.400;2023-02-13T07:17:04;98568.25;;;0.17;100.00
28927;BME280;16038;47.692;9.400;2023-02-13T07:19:32;98564.75;;;0.16;100.00
28927;BME280;16038;47.692;9.400;2023-02-13T07:22:01;98567.44;;;0.16;100.00
28927;BME280;16038;47.692;9.400;2023-02-13T07:24:26;98573.38;;;0.18;100.00
28927;BME280;16038;47.692;9.400;2023-02-13T07:26:51;98574.94;;;0.14;100.00
28927;BME280;16038;47.692;9.400;2023-02-13T07:29:16;98581.41;;;0.13;100.00
28927;BME280;16038;47.692;9.400;2023-02-13T07:31:42;98581.78;;;0.22;100.00
28927;BME280;16038;47.692;9.400;2023-02-13T07:34:07;98577.94;;;0.18;100.00
28927;BME280;16038;47.692;9.400;2023-02-13T07:36:32;98581.84;;;0.27;100.00
28927;BME280;16038;47.692;9.400;2023-02-13T07:38:58;98581.16;;;0.15;100.00
28927;BME280;16038;47.692;9.400;2023-02-13T07:41:23;98584.16;;;0.18;100.00
28927;BME280;16038;47.692;9.400;2023-02-13T07:43:52;98575.84;;;0.20;100.00
28927;BME280;16038;47.692;9.400;2023-02-13T07:46:17;98582.59;;;0.23;100.00
28927;BME280;16038;47.692;9.400;2023-02-13T07:48:43;98584.78;;;0.26;100.00
28927;BME280;16038;47.692;9.400;2023-02-13T07:51:08;98588.78;;;0.23;100.00
28927;BME280;16038;47.692;9.400;2023-02-13T07:53:33;98595.34;;;0.32;100.00
28927;BME280;16038;47.692;9.400;2023-02-13T07:56:03;98589.97;;;0.32;100.00
28927;BME280;16038;47.692;9.400;2023-02-13T07:58:28;98589.63;;;0.24;100.00
28927;BME280;16038;47.692;9.400;2023-02-13T08:00:53;98589.66;;;0.29;100.00
28927;BME280;16038;47.692;9.400;2023-02-13T08:03:19;98592.63;;;0.27;100.00
28927;BME280;16038;47.692;9.400;2023-02-13T08:05:45;98589.75;;;0.39;100.00
28927;BME280;16038;47.692;9.400;2023-02-13T08:08:11;98592.72;;;0.37;100.00
28927;BME280;16038;47.692;9.400;2023-02-13T08:10:36;98597.34;;;0.42;100.00
28927;BME280;16038;47.692;9.400;2023-02-13T08:13:22;98601.31;;;0.34;100.00
28927;BME280;16038;47.692;9.400;2023-02-13T08:15:47;98603.50;;;0.37;100.00
28927;BME280;16038;47.692;9.400;2023-02-13T08:18:13;98595.63;;;0.58;100.00
28927;BME280;16038;47.692;9.400;2023-02-13T08:20:38;98606.56;;;0.46;100.00
28927;BME280;16038;47.692;9.400;2023-02-13T08:23:04;98604.16;;;0.50;100.00
28927;BME280;16038;47.692;9.400;2023-02-13T08:25:30;98607.72;;;0.55;100.00
28927;BME280;16038;47.692;9.400;2023-02-13T08:27:57;98606.72;;;0.62;100.00
28927;BME280;16038;47.692;9.400;2023-02-13T08:30:22;98609.19;;;0.68;100.00
28927;BME280;16038;47.692;9.400;2023-02-13T08:32:48;98604.28;;;0.60;100.00
28927;BME280;16038;47.692;9.400;2023-02-13T08:35:13;98591.34;;;0.62;100.00
28927;BME280;16038;47.692;9.400;2023-02-13T08:37:38;98603.16;;;0.56;100.00
28927;BME280;16038;47.692;9.400;2023-02-13T08:40:04;98605.34;;;0.59;100.00
28927;BME280;16038;47.692;9.400;2023-02-13T08:42:29;98604.28;;;0.60;100.00
28927;BME280;16038;47.692;9.400;2023-02-13T08:44:54;98605.63;;;0.63;100.00
28927;BME280;16038;47.692;9.400;2023-02-13T08:47:20;98609.41;;;0.62;100.00
28927;BME280;16038;47.692;9.400;2023-02-13T08:49:45;98604.41;;;0.75;100.00
28927;BME280;16038;47.692;9.400;2023-02-13T08:52:10;98606.50;;;0.68;100.00
28927;BME280;16038;47.692;9.400;2023-02-13T08:54:35;98608.25;;;0.80;100.00
28927;BME280;16038;47.692;9.400;2023-02-13T08:57:01;98607.63;;;0.72;100.00
28927;BME280;16038;47.692;9.400;2023-02-13T08:59:26;98605.44;;;0.69;100.00
28927;BME280;16038;47.692;9.400;2023-02-13T09:01:51;98598.69;;;0.67;100.00
28927;BME280;16038;47.692;9.400;2023-02-13T09:04:17;98600.34;;;0.73;100.00
28927;BME280;16038;47.692;9.400;2023-02-13T09:06:42;98604.81;;;0.89;100.00
28927;BME280;16038;47.692;9.400;2023-02-13T09:09:08;98604.72;;;0.79;100.00
28927;BME280;16038;47.692;9.400;2023-02-13T09:11:33;98606.09;;;0.82;100.00
28927;BME280;16038;47.692;9.400;2023-02-13T09:13:58;98599.91;;;0.86;100.00
28927;BME280;16038;47.692;9.400;2023-02-13T09:16:24;98597.81;;;0.93;100.00
28927;BME280;16038;47.692;9.400;2023-02-13T09:18:49;98602.16;;;0.94;100.00
28927;BME280;16038;47.692;9.400;2023-02-13T09:21:15;98599.63;;;0.83;100.00
28927;BME280;16038;47.692;9.400;2023-02-13T09:23:41;98601.00;;;0.85;100.00
28927;BME280;16038;47.692;9.400;2023-02-13T09:26:08;98598.72;;;1.04;100.00
28927;BME280;16038;47.692;9.400;2023-02-13T09:28:34;98599.94;;;1.24;100.00
28927;BME280;16038;47.692;9.400;2023-02-13T09:31:04;98607.19;;;1.56;100.00
28927;BME280;16038;47.692;9.400;2023-02-13T09:33:29;98608.78;;;1.51;100.00
28927;BME280;16038;47.692;9.400;2023-02-13T09:35:54;98613.25;;;1.78;100.00
28927;BME280;16038;47.692;9.400;2023-02-13T09:38:19;98607.84;;;1.73;100.00
28927;BME280;16038;47.692;9.400;2023-02-13T09:40:46;98606.16;;;1.67;100.00
28927;BME280;16038;47.692;9.400;2023-02-13T09:45:38;98607.44;;;2.07;100.00
28927;BME280;16038;47.692;9.400;2023-02-13T09:48:04;98608.00;;;2.14;100.00
28927;BME280;16038;47.692;9.400;2023-02-13T09:50:30;98608.50;;;2.01;100.00
28927;BME280;16038;47.692;9.400;2023-02-13T09:52:57;98603.72;;;2.23;100.00
28927;BME280;16038;47.692;9.400;2023-02-13T09:55:26;98604.34;;;2.56;100.00
28927;BME280;16038;47.692;9.400;2023-02-13T09:57:57;98604.09;;;2.58;100.00
28927;BME280;16038;47.692;9.400;2023-02-13T10:00:33;98602.88;;;2.18;100.00
28927;BME280;16038;47.692;9.400;2023-02-13T10:03:06;98604.88;;;2.53;100.00
28927;BME280;16038;47.692;9.400;2023-02-13T10:05:45;98599.22;;;2.75;100.00
28927;BME280;16038;47.692;9.400;2023-02-13T10:10:56;98611.69;;;3.33;100.00
28927;BME280;16038;47.692;9.400;2023-02-13T10:16:19;98605.47;;;2.96;100.00
28927;BME280;16038;47.692;9.400;2023-02-13T10:18:51;98607.06;;;3.54;100.00
28927;BME280;16038;47.692;9.400;2023-02-13T10:21:21;98611.34;;;3.75;100.00
28927;BME280;16038;47.692;9.400;2023-02-13T10:24:03;98603.13;;;4.01;100.00
28927;BME280;16038;47.692;9.400;2023-02-13T10:26:31;98609.25;;;3.36;100.00
28927;BME280;16038;47.692;9.400;2023-02-13T10:32:11;98600.88;;;3.22;100.00
28927;BME280;16038;47.692;9.400;2023-02-13T10:34:45;98595.47;;;3.12;100.00
28927;BME280;16038;47.692;9.400;2023-02-13T10:37:15;98593.03;;;3.21;100.00
28927;BME280;16038;47.692;9.400;2023-02-13T10:39:42;98604.88;;;3.66;100.00
28927;BME280;16038;47.692;9.400;2023-02-13T10:55:04;98587.97;;;4.00;100.00
28927;BME280;16038;47.692;9.400;2023-02-13T10:57:41;98581.28;;;4.37;100.00
28927;BME280;16038;47.692;9.400;2023-02-13T11:00:14;98576.63;;;4.43;100.00
28927;BME280;16038;47.692;9.400;2023-02-13T11:02:42;98573.88;;;4.53;100.00
28927;BME280;16038;47.692;9.400;2023-02-13T11:05:18;98571.19;;;4.48;100.00
28927;BME280;16038;47.692;9.400;2023-02-13T11:07:45;98576.19;;;4.70;100.00
28927;BME280;16038;47.692;9.400;2023-02-13T11:10:21;98580.75;;;4.79;100.00
28927;BME280;16038;47.692;9.400;2023-02-13T11:12:47;98570.69;;;4.80;100.00
28927;BME280;16038;47.692;9.400;2023-02-13T11:17:47;98570.53;;;5.01;100.00
28927;BME280;16038;47.692;9.400;2023-02-13T11:22:54;98569.44;;;5.02;100.00
28927;BME280;16038;47.692;9.400;2023-02-13T11:25:26;98568.06;;;5.04;100.00
28927;BME280;16038;47.692;9.400;2023-02-13T11:28:09;98561.53;;;5.05;100.00
28927;BME280;16038;47.692;9.400;2023-02-13T11:30:40;98571.69;;;5.24;100.00
28927;BME280;16038;47.692;9.400;2023-02-13T11:33:16;98562.97;;;5.27;100.00
28927;BME280;16038;47.692;9.400;2023-02-13T11:35:45;98566.38;;;5.13;100.00
28927;BME280;16038;47.692;9.400;2023-02-13T11:40:39;98562.81;;;4.39;100.00
28927;BME280;16038;47.692;9.400;2023-02-13T11:43:06;98565.38;;;4.15;100.00
28927;BME280;16038;47.692;9.400;2023-02-13T11:45:31;98558.38;;;4.53;100.00
28927;BME280;16038;47.692;9.400;2023-02-13T11:47:57;98559.88;;;4.75;100.00
28927;BME280;16038;47.692;9.400;2023-02-13T11:53:00;98554.72;;;4.73;100.00
28927;BME280;16038;47.692;9.400;2023-02-13T11:55:35;98550.78;;;5.24;100.00
28927;BME280;16038;47.692;9.400;2023-02-13T12:00:37;98547.56;;;5.46;100.00
28927;BME280;16038;47.692;9.400;2023-02-13T12:05:56;98553.19;;;5.55;100.00
28927;BME280;16038;47.692;9.400;2023-02-13T12:08:23;98546.31;;;5.63;100.00
28927;BME280;16038;47.692;9.400;2023-02-13T12:10:48;98551.38;;;5.45;99.51
28927;BME280;16038;47.692;9.400;2023-02-13T12:13:15;98551.09;;;4.49;100.00
28927;BME280;16038;47.692;9.400;2023-02-13T12:15:44;98543.78;;;4.44;100.00
28927;BME280;16038;47.692;9.400;2023-02-13T12:26:37;98538.19;;;5.58;100.00
28927;BME280;16038;47.692;9.400;2023-02-13T12:31:41;98532.66;;;4.46;100.00
28927;BME280;16038;47.692;9.400;2023-02-13T12:39:17;98525.34;;;5.39;100.00
28927;BME280;16038;47.692;9.400;2023-02-13T12:52:35;98519.69;;;5.35;100.00
28927;BME280;16038;47.692;9.400;2023-02-13T12:55:16;98516.41;;;5.63;100.00
28927;BME280;16038;47.692;9.400;2023-02-13T12:57:51;98508.59;;;5.56;99.26
28927;BME280;16038;47.692;9.400;2023-02-13T13:02:56;98509.88;;;5.64;99.35
28927;BME280;16038;47.692;9.400;2023-02-13T13:05:25;98504.44;;;5.64;98.30
28927;BME280;16038;47.692;9.400;2023-02-13T13:07:58;98504.50;;;5.59;98.51
28927;BME280;16038;47.692;9.400;2023-02-13T13:13:07;98508.50;;;3.99;100.00
28927;BME280;16038;47.692;9.400;2023-02-13T13:15:44;98508.47;;;4.10;100.00
28927;BME280;16038;47.692;9.400;2023-02-13T13:18:18;98511.00;;;4.75;100.00
28927;BME280;16038;47.692;9.400;2023-02-13T13:20:55;98509.78;;;5.21;100.00
28927;BME280;16038;47.692;9.400;2023-02-13T13:23:33;98503.28;;;5.46;100.00
28927;BME280;16038;47.692;9.400;2023-02-13T13:28:34;98505.69;;;5.71;97.96
28927;BME280;16038;47.692;9.400;2023-02-13T13:31:02;98507.00;;;5.74;98.69
28927;BME280;16038;47.692;9.400;2023-02-13T13:33:27;98503.84;;;5.19;97.18
28927;BME280;16038;47.692;9.400;2023-02-13T13:40:56;98505.59;;;4.35;100.00
28927;BME280;16038;47.692;9.400;2023-02-13T13:43:27;98511.09;;;3.70;100.00
28927;BME280;16038;47.692;9.400;2023-02-13T13:46:07;98502.09;;;4.30;100.00
28927;BME280;16038;47.692;9.400;2023-02-13T13:51:05;98492.00;;;4.75;100.00
28927;BME280;16038;47.692;9.400;2023-02-13T13:53:30;98491.28;;;4.64;100.00
28927;BME280;16038;47.692;9.400;2023-02-13T14:03:47;98488.00;;;4.33;100.00
28927;BME280;16038;47.692;9.400;2023-02-13T14:06:20;98487.44;;;4.36;100.00
28927;BME280;16038;47.692;9.400;2023-02-13T14:09:03;98483.31;;;4.44;100.00
28927;BME280;16038;47.692;9.400;2023-02-13T14:11:39;98484.56;;;4.56;100.00
28927;BME280;16038;47.692;9.400;2023-02-13T14:14:50;98491.56;;;4.63;100.00
28927;BME280;16038;47.692;9.400;2023-02-13T14:16:50;98495.06;;;4.97;100.00
28927;BME280;16038;47.692;9.400;2023-02-13T14:19:25;98491.72;;;5.06;100.00
28927;BME280;16038;47.692;9.400;2023-02-13T14:21:53;98492.75;;;5.15;100.00
28927;BME280;16038;47.692;9.400;2023-02-13T14:24:19;98493.88;;;5.33;100.00
28927;BME280;16038;47.692;9.400;2023-02-13T14:26:53;98492.94;;;5.48;100.00
28927;BME280;16038;47.692;9.400;2023-02-13T14:31:52;98490.22;;;5.48;100.00
28927;BME280;16038;47.692;9.400;2023-02-13T14:34:22;98491.31;;;5.71;99.46
28927;BME280;16038;47.692;9.400;2023-02-13T14:37:27;98493.56;;;5.64;99.30
28927;BME280;16038;47.692;9.400;2023-02-13T14:43:01;98497.09;;;5.64;99.15
28927;BME280;16038;47.692;9.400;2023-02-13T14:45:32;98489.97;;;5.68;98.09
28927;BME280;16038;47.692;9.400;2023-02-13T14:48:01;98491.16;;;5.81;97.76
28927;BME280;16038;47.692;9.400;2023-02-13T14:50:31;98487.28;;;5.63;97.00
28927;BME280;16038;47.692;9.400;2023-02-13T14:52:59;98488.28;;;5.72;97.26
28927;BME280;16038;47.692;9.400;2023-02-13T14:55:30;98483.66;;;5.73;97.45
28927;BME280;16038;47.692;9.400;2023-02-13T14:58:00;98485.31;;;5.69;98.28
28927;BME280;16038;47.692;9.400;2023-02-13T15:03:14;98482.47;;;5.60;98.14
28927;BME280;16038;47.692;9.400;2023-02-13T15:05:47;98480.38;;;5.52;98.80
28927;BME280;16038;47.692;9.400;2023-02-13T15:08:13;98482.22;;;5.32;99.44
28927;BME280;16038;47.692;9.400;2023-02-13T15:13:11;98489.28;;;5.58;100.00
28927;BME280;16038;47.692;9.400;2023-02-13T15:15:37;98475.06;;;5.66;99.22
28927;BME280;16038;47.692;9.400;2023-02-13T15:18:06;98480.03;;;5.59;98.33
28927;BME280;16038;47.692;9.400;2023-02-13T15:20:32;98469.50;;;5.52;99.26
28927;BME280;16038;47.692;9.400;2023-02-13T15:22:59;98466.19;;;5.31;100.00
28927;BME280;16038;47.692;9.400;2023-02-13T15:25:28;98470.59;;;5.27;100.00
28927;BME280;16038;47.692;9.400;2023-02-13T15:27:55;98466.38;;;5.40;100.00
28927;BME280;16038;47.692;9.400;2023-02-13T15:30:26;98466.09;;;5.41;100.00